Time;durP1;ratioP1;P1;durP2;ratioP2;P2;SDS_P1;SDS_P2;PMS_P1;PMS_P2;Temp;Humidity;BMP_temperature;BMP_pressure;BME280_temperature;BME280_humidity;BME280_pressure;Samples;Min_cycle;Max_cycle;Signal;HPM_P1;HPM_P2
2023/03/06 00:00:38;;;;;;;;;43.50;32.75;;;;;9.47;52.60;100620.22;5117101;27;45226;-64
2023/03/06 00:03:04;;;;;;;;;30.25;26.50;;;;;9.43;52.59;100618.34;5117053;27;45256;-63
2023/03/06 00:05:30;;;;;;;;;40.00;28.25;;;;;9.35;52.89;100608.34;5118870;27;45259;-65
2023/03/06 00:07:56;;;;;;;;;36.00;31.00;;;;;9.22;52.67;100599.13;5121284;27;45091;-63
2023/03/06 00:10:25;;;;;;;;;38.25;30.00;;;;;9.32;52.76;100618.94;5102104;27;46639;-66
2023/03/06 00:12:52;;;;;;;;;43.00;27.00;;;;;9.24;53.12;100615.16;5125304;27;45076;-63
2023/03/06 00:15:18;;;;;;;;;40.00;32.25;;;;;9.20;52.77;100607.91;5117609;27;45877;-63
2023/03/06 00:17:44;;;;;;;;;32.75;29.50;;;;;9.23;52.76;100613.34;5116757;27;45231;-67
2023/03/06 00:20:10;;;;;;;;;34.00;27.25;;;;;9.13;52.34;100603.28;5116544;27;54199;-68
2023/03/06 00:22:36;;;;;;;;;39.75;26.75;;;;;9.12;51.59;100606.78;5117446;27;45023;-65
2023/03/06 00:25:02;;;;;;;;;22.25;19.50;;;;;9.06;51.21;100595.94;5116372;27;45123;-65
2023/03/06 00:27:29;;;;;;;;;33.50;28.75;;;;;9.09;51.75;100612.00;5094061;27;45226;-64
2023/03/06 00:29:56;;;;;;;;;27.75;27.00;;;;;8.98;51.72;100585.97;5110762;27;45794;-64
2023/03/06 00:32:22;;;;;;;;;29.50;24.75;;;;;9.03;51.46;100594.09;5102525;27;45556;-64
2023/03/06 00:34:48;;;;;;;;;34.00;29.50;;;;;9.03;50.78;100602.97;5108225;27;45191;-64
2023/03/06 00:37:14;;;;;;;;;26.75;22.00;;;;;8.97;51.57;100585.91;5120812;27;45681;-65
2023/03/06 00:39:39;;;;;;;;;28.00;25.75;;;;;8.97;51.43;100591.25;5122427;27;45325;-63
2023/03/06 00:42:05;;;;;;;;;32.25;28.25;;;;;8.93;51.46;100592.00;5115849;27;56142;-64
2023/03/06 00:44:30;;;;;;;;;31.50;21.50;;;;;8.87;52.20;100592.72;5120138;27;45369;-66
2023/03/06 00:46:56;;;;;;;;;30.00;25.25;;;;;8.87;51.19;100595.38;5118910;27;45166;-63
2023/03/06 00:49:21;;;;;;;;;38.25;33.00;;;;;8.80;51.35;100585.41;5120290;27;45316;-64
2023/03/06 00:51:47;;;;;;;;;31.75;31.50;;;;;8.74;50.97;100567.44;5114612;27;45083;-63
2023/03/06 00:54:12;;;;;;;;;26.25;22.75;;;;;8.83;51.04;100585.50;5119191;27;45290;-64
2023/03/06 00:56:37;;;;;;;;;29.00;23.00;;;;;8.89;51.29;100587.44;5113026;27;45100;-65
2023/03/06 00:59:03;;;;;;;;;34.75;28.25;;;;;8.85;51.53;100570.47;5119374;27;49556;-63
2023/03/06 01:01:28;;;;;;;;;35.25;29.00;;;;;8.80;51.22;100572.09;5111368;27;56080;-63
2023/03/06 01:03:54;;;;;;;;;31.50;26.00;;;;;8.91;51.97;100589.31;5123006;27;45892;-63
2023/03/06 01:06:19;;;;;;;;;35.25;27.00;;;;;8.90;51.67;100584.81;5113139;27;45309;-65
2023/03/06 01:08:44;;;;;;;;;33.25;27.50;;;;;8.91;51.75;100586.63;5118742;27;46230;-63
2023/03/06 01:11:10;;;;;;;;;35.25;28.25;;;;;8.99;51.75;100594.84;5124593;27;45247;-64
2023/03/06 01:13:35;;;;;;;;;37.25;26.50;;;;;8.96;52.47;100579.69;5117657;27;45358;-63
2023/03/06 01:16:09;;;;;;;;;35.00;27.50;;;;;9.00;51.82;100586.91;5120507;27;46323;-64
2023/03/06 01:18:34;;;;;;;;;36.00;28.50;;;;;8.96;52.48;100585.00;5117202;27;46033;-63
2023/03/06 01:21:00;;;;;;;;;37.75;28.75;;;;;8.81;51.92;100547.22;5125144;27;45091;-65
2023/03/06 01:23:25;;;;;;;;;37.25;30.75;;;;;8.94;52.51;100578.75;5115578;27;45240;-64
2023/03/06 01:25:51;;;;;;;;;38.25;30.75;;;;;8.88;53.27;100569.66;5122841;27;45204;-65
2023/03/06 01:28:16;;;;;;;;;34.25;29.25;;;;;8.90;53.47;100586.59;5119820;27;45150;-63
2023/03/06 01:30:41;;;;;;;;;32.75;31.50;;;;;8.83;52.95;100582.84;5119226;27;45190;-66
2023/03/06 01:33:07;;;;;;;;;29.25;24.00;;;;;8.79;53.32;100580.91;5129497;27;45392;-65
2023/03/06 01:35:32;;;;;;;;;33.50;27.25;;;;;8.73;54.02;100572.72;5118929;27;45112;-65
2023/03/06 01:37:57;;;;;;;;;30.75;27.00;;;;;8.81;52.74;100572.13;5126780;27;45665;-64
2023/03/06 01:40:23;;;;;;;;;31.25;24.75;;;;;8.78;52.80;100568.47;5114535;27;45020;-64
2023/03/06 01:42:49;;;;;;;;;28.50;25.75;;;;;8.74;52.15;100571.88;5118511;27;45110;-66
2023/03/06 01:45:14;;;;;;;;;37.00;26.50;;;;;8.74;51.63;100571.88;5120516;27;44982;-65
2023/03/06 01:47:39;;;;;;;;;28.00;25.50;;;;;8.66;51.80;100564.56;5117187;27;45666;-63
2023/03/06 01:50:08;;;;;;;;;29.25;23.75;;;;;8.66;51.17;100558.31;5117423;27;45121;-65
2023/03/06 01:52:42;;;;;;;;;29.50;25.25;;;;;8.56;51.85;100543.81;5119192;27;45072;-65
2023/03/06 01:55:12;;;;;;;;;26.50;24.00;;;;;8.70;51.55;100554.91;5121746;27;45131;-66
2023/03/06 01:57:43;;;;;;;;;34.25;26.00;;;;;8.68;51.05;100556.63;5121363;27;45250;-64
2023/03/06 02:00:12;;;;;;;;;24.50;22.00;;;;;8.72;51.09;100562.94;5117377;27;45299;-65
2023/03/06 02:02:39;;;;;;;;;27.50;21.75;;;;;8.60;50.48;100540.41;5114052;27;45202;-65
2023/03/06 02:05:05;;;;;;;;;24.25;22.75;;;;;8.69;49.87;100545.09;5117548;27;46088;-64
2023/03/06 02:07:32;;;;;;;;;22.00;19.50;;;;;8.74;49.72;100543.47;5115756;27;46463;-67
2023/03/06 02:09:58;;;;;;;;;22.75;20.25;;;;;8.69;49.70;100534.44;5118470;27;45160;-67
2023/03/06 02:12:24;;;;;;;;;31.25;20.75;;;;;8.75;48.97;100539.06;5114489;27;45732;-64
2023/03/06 02:14:49;;;;;;;;;20.25;15.75;;;;;8.66;48.96;100521.03;5098755;27;45252;-64
2023/03/06 02:17:19;;;;;;;;;26.75;22.25;;;;;8.75;48.76;100544.41;5120426;27;45147;-65
2023/03/06 02:19:51;;;;;;;;;25.50;20.75;;;;;8.74;48.70;100535.50;5122022;27;44985;-65
2023/03/06 02:22:16;;;;;;;;;31.75;24.25;;;;;8.72;49.58;100531.88;5123063;27;45155;-66
2023/03/06 02:25:08;;;;;;;;;21.25;18.25;;;;;8.71;49.10;100534.50;5121942;27;44970;-65
2023/03/06 02:27:34;;;;;;;;;38.00;25.25;;;;;8.72;49.64;100518.56;5120495;27;45696;-66
2023/03/06 02:29:59;;;;;;;;;35.75;26.75;;;;;8.69;49.83;100517.56;5114780;27;45226;-66
2023/03/06 02:32:24;;;;;;;;;28.50;19.75;;;;;8.74;49.45;100527.50;5114898;27;45870;-65
2023/03/06 02:34:54;;;;;;;;;29.25;21.25;;;;;8.71;49.51;100516.78;5116617;27;45043;-64
2023/03/06 02:37:22;;;;;;;;;29.00;22.00;;;;;8.48;49.73;100514.31;5115321;27;45310;-64
2023/03/06 02:39:53;;;;;;;;;27.50;20.50;;;;;8.37;50.77;100505.03;5117831;27;45225;-66
2023/03/06 02:42:25;;;;;;;;;24.75;23.00;;;;;8.33;50.97;100508.44;5117607;27;45296;-64
2023/03/06 02:44:52;;;;;;;;;29.75;23.75;;;;;8.27;50.06;100492.31;5119586;27;44913;-65
2023/03/06 02:47:18;;;;;;;;;27.50;21.00;;;;;8.29;50.30;100499.47;5117814;27;45983;-65
2023/03/06 02:49:43;;;;;;;;;27.75;22.75;;;;;8.21;50.32;100492.09;5120468;27;46412;-64
2023/03/06 02:52:09;;;;;;;;;30.00;23.00;;;;;8.27;51.10;100502.97;5115161;27;45245;-64
2023/03/06 02:54:34;;;;;;;;;17.00;15.25;;;;;8.28;50.35;100500.34;5116095;27;46481;-65
2023/03/06 02:56:59;;;;;;;;;28.00;22.50;;;;;8.24;50.95;100481.56;5116549;27;45719;-64
2023/03/06 02:59:25;;;;;;;;;28.50;27.25;;;;;8.37;51.06;100488.19;5118123;27;45321;-65
2023/03/06 03:01:50;;;;;;;;;29.00;23.25;;;;;8.39;50.03;100495.34;5119591;27;46332;-63
2023/03/06 03:04:16;;;;;;;;;35.50;28.50;;;;;8.39;50.12;100494.44;5108155;27;46245;-64
2023/03/06 03:06:41;;;;;;;;;30.75;21.75;;;;;8.28;50.01;100488.78;5114106;27;45407;-64
2023/03/06 03:09:06;;;;;;;;;32.00;21.75;;;;;8.23;49.85;100493.97;5102476;27;44929;-63
2023/03/06 03:11:32;;;;;;;;;21.00;19.75;;;;;8.21;50.50;100481.47;5115060;27;45141;-65
2023/03/06 03:13:57;;;;;;;;;30.00;22.25;;;;;8.22;49.81;100480.63;5115462;27;45144;-65
2023/03/06 03:16:23;;;;;;;;;25.75;25.50;;;;;8.20;49.29;100479.66;5117539;27;45177;-65
2023/03/06 03:18:49;;;;;;;;;29.00;22.75;;;;;8.23;50.52;100483.34;5120081;27;45326;-65
2023/03/06 03:21:15;;;;;;;;;26.00;23.50;;;;;8.20;50.08;100477.91;5116855;27;45305;-66
2023/03/06 03:23:41;;;;;;;;;27.75;20.00;;;;;8.26;50.22;100471.88;5117300;27;45162;-65
2023/03/06 03:26:09;;;;;;;;;28.00;23.50;;;;;8.32;49.85;100479.16;5118039;27;45131;-65
2023/03/06 03:28:35;;;;;;;;;29.75;23.75;;;;;8.35;49.26;100476.56;5108868;27;45268;-66
2023/03/06 03:31:05;;;;;;;;;28.50;24.50;;;;;8.35;50.27;100471.22;5110630;27;45126;-65
2023/03/06 03:33:31;;;;;;;;;34.75;29.00;;;;;8.35;50.06;100476.56;5112770;27;45188;-65
2023/03/06 03:36:01;;;;;;;;;35.25;26.75;;;;;8.28;50.67;100476.41;5114900;27;45613;-65
2023/03/06 03:38:27;;;;;;;;;26.50;24.50;;;;;8.19;50.85;100473.44;5094495;27;45104;-66
2023/03/06 03:40:52;;;;;;;;;25.50;18.75;;;;;8.16;50.91;100483.97;5116201;27;45071;-65
2023/03/06 03:43:17;;;;;;;;;19.25;18.25;;;;;8.18;51.21;100476.94;5115230;27;45042;-65
2023/03/06 03:45:43;;;;;;;;;32.50;26.75;;;;;8.13;51.67;100467.91;5110335;27;47294;-65
2023/03/06 03:48:08;;;;;;;;;35.50;26.75;;;;;8.03;51.40;100450.75;5078956;27;45233;-65
2023/03/06 03:50:34;;;;;;;;;33.50;25.00;;;;;8.10;51.47;100470.47;5111947;27;45441;-64
2023/03/06 03:52:59;;;;;;;;;33.75;26.25;;;;;7.90;51.76;100453.88;5100764;27;45688;-65
2023/03/06 03:55:24;;;;;;;;;31.25;24.00;;;;;7.97;52.26;100460.28;5114223;27;52538;-64
2023/03/06 03:57:50;;;;;;;;;38.00;29.25;;;;;8.02;51.84;100466.66;5111587;27;45222;-64
2023/03/06 04:00:16;;;;;;;;;33.75;25.50;;;;;7.94;52.19;100464.66;5114027;27;45142;-64
2023/03/06 04:02:43;;;;;;;;;43.50;24.50;;;;;7.88;52.16;100466.22;5121623;27;45110;-64
2023/03/06 04:05:10;;;;;;;;;33.00;26.00;;;;;7.72;52.20;100454.16;5103977;27;46348;-65
2023/03/06 04:07:35;;;;;;;;;34.25;29.00;;;;;7.69;52.87;100468.28;5100269;27;45057;-64
2023/03/06 04:10:01;;;;;;;;;29.50;24.50;;;;;7.64;53.38;100448.63;5114191;27;44926;-66
2023/03/06 04:12:26;;;;;;;;;24.75;22.75;;;;;7.72;52.92;100455.09;5120500;27;45113;-65
2023/03/06 04:14:51;;;;;;;;;30.00;23.75;;;;;7.64;53.20;100450.34;5116576;27;46331;-68
2023/03/06 04:17:17;;;;;;;;;31.50;23.25;;;;;7.57;53.25;100446.59;5105462;27;44962;-66
2023/03/06 04:19:42;;;;;;;;;31.50;24.00;;;;;7.56;53.21;100442.16;5117105;27;45047;-64
2023/03/06 04:22:07;;;;;;;;;34.50;26.50;;;;;7.63;53.38;100453.88;5125386;27;45218;-68
2023/03/06 04:24:33;;;;;;;;;29.00;24.50;;;;;7.71;53.29;100447.06;5097014;27;46093;-64
2023/03/06 04:26:58;;;;;;;;;47.50;29.50;;;;;7.61;53.35;100424.59;5121632;27;45076;-64
2023/03/06 04:29:23;;;;;;;;;37.00;27.25;;;;;7.59;53.88;100436.94;5123353;27;44935;-65
2023/03/06 04:31:49;;;;;;;;;39.25;27.75;;;;;7.54;54.34;100434.13;5109757;27;45142;-65
2023/03/06 04:34:14;;;;;;;;;34.00;28.25;;;;;7.54;53.64;100425.25;5120512;27;46495;-64
2023/03/06 04:36:43;;;;;;;;;30.25;27.25;;;;;7.65;53.55;100436.22;5119528;27;45232;-66
2023/03/06 04:39:10;;;;;;;;;32.25;25.75;;;;;7.70;53.58;100429.28;5119328;27;45030;-65
2023/03/06 04:41:35;;;;;;;;;34.00;27.75;;;;;7.77;53.12;100428.66;5120405;27;45131;-64
2023/03/06 04:44:01;;;;;;;;;32.00;23.25;;;;;7.80;52.85;100420.75;5121693;27;65988;-64
2023/03/06 04:46:26;;;;;;;;;29.50;23.75;;;;;7.77;52.85;100436.63;5114449;27;46918;-64
2023/03/06 04:48:51;;;;;;;;;32.00;24.25;;;;;7.61;52.65;100432.56;5125013;27;44950;-65
2023/03/06 04:51:17;;;;;;;;;27.50;22.75;;;;;7.51;52.70;100428.69;5117824;27;45031;-63
2023/03/06 04:53:42;;;;;;;;;25.75;21.75;;;;;7.33;52.80;100407.72;5121134;27;49144;-66
2023/03/06 04:56:08;;;;;;;;;29.00;23.00;;;;;7.38;53.35;100431.78;5116611;27;45076;-64
2023/03/06 04:58:33;;;;;;;;;29.75;20.75;;;;;7.46;53.43;100427.63;5116061;27;45490;-66
2023/03/06 05:00:59;;;;;;;;;32.75;22.50;;;;;7.62;52.41;100430.78;5114803;27;45219;-65
2023/03/06 05:03:24;;;;;;;;;25.25;20.50;;;;;7.66;52.32;100430.94;5118258;27;45572;-67
2023/03/06 05:05:49;;;;;;;;;20.50;17.75;;;;;7.70;52.40;100434.59;5119731;27;45396;-64
2023/03/06 05:08:16;;;;;;;;;30.75;24.75;;;;;7.38;52.32;100363.59;5120235;27;49343;-65
2023/03/06 05:10:43;;;;;;;;;32.75;25.75;;;;;7.79;52.80;100428.69;5120151;27;45094;-65
2023/03/06 05:13:09;;;;;;;;;39.00;29.00;;;;;7.75;53.07;100428.59;5117371;27;45137;-66
2023/03/06 05:15:35;;;;;;;;;25.00;22.25;;;;;7.74;53.30;100436.53;5123511;27;45193;-69
2023/03/06 05:18:02;;;;;;;;;37.75;25.00;;;;;7.56;53.28;100436.81;5106008;27;45397;-65
2023/03/06 05:20:30;;;;;;;;;35.75;28.75;;;;;7.46;53.83;100430.28;5122118;27;45107;-66
2023/03/06 05:22:55;;;;;;;;;29.25;23.50;;;;;7.39;54.08;100430.91;5119454;27;45935;-67
2023/03/06 05:25:20;;;;;;;;;28.25;24.00;;;;;7.26;54.03;100415.41;5120233;27;45231;-66
2023/03/06 05:27:46;;;;;;;;;32.50;25.50;;;;;7.37;53.92;100435.28;5113444;27;45107;-67
2023/03/06 05:30:13;;;;;;;;;35.25;27.25;;;;;7.42;53.91;100439.00;5117793;27;45119;-65
2023/03/06 05:32:39;;;;;;;;;29.50;23.75;;;;;7.35;53.63;100423.72;5120779;27;45107;-64
2023/03/06 05:35:05;;;;;;;;;30.25;22.75;;;;;7.40;53.93;100418.56;5110252;27;46270;-63
2023/03/06 05:37:31;;;;;;;;;37.50;28.75;;;;;7.50;53.61;100426.88;5122715;27;45417;-67
2023/03/06 05:39:57;;;;;;;;;27.50;22.50;;;;;7.52;53.31;100429.59;5114946;27;45258;-67
2023/03/06 05:42:23;;;;;;;;;31.25;26.00;;;;;7.54;53.30;100419.94;5118418;27;45080;-65
2023/03/06 05:44:48;;;;;;;;;33.50;27.50;;;;;7.56;53.66;100420.88;5114074;27;44949;-66
2023/03/06 05:47:13;;;;;;;;;32.75;25.75;;;;;7.57;53.96;100423.59;5119675;27;45237;-67
2023/03/06 05:49:39;;;;;;;;;42.25;32.25;;;;;7.54;54.20;100412.84;5117288;27;45128;-66
2023/03/06 05:52:06;;;;;;;;;26.25;22.50;;;;;7.46;53.87;100406.38;5117262;27;46203;-65
2023/03/06 05:54:32;;;;;;;;;37.50;27.25;;;;;7.47;54.41;100421.44;5118261;27;45317;-66
2023/03/06 05:56:58;;;;;;;;;46.00;30.75;;;;;7.49;54.80;100414.44;5122391;27;45265;-67
2023/03/06 05:59:28;;;;;;;;;28.25;25.75;;;;;7.51;54.61;100420.72;5119521;27;45201;-65
2023/03/06 06:01:56;;;;;;;;;31.25;28.50;;;;;7.45;54.42;100403.66;5116542;27;45312;-64
2023/03/06 06:04:23;;;;;;;;;19.25;18.25;;;;;7.49;53.19;100400.22;5118261;27;45248;-65
2023/03/06 06:06:58;;;;;;;;;27.00;22.75;;;;;7.41;53.67;100389.38;5123687;27;45155;-64
2023/03/06 06:09:23;;;;;;;;;25.75;24.00;;;;;7.45;53.95;100367.34;5122274;27;45340;-66
2023/03/06 06:11:54;;;;;;;;;25.00;21.50;;;;;7.52;53.21;100364.06;5107388;27;46572;-65
2023/03/06 06:14:20;;;;;;;;;24.50;23.50;;;;;7.62;53.22;100377.63;5115896;27;45132;-67
2023/03/06 06:16:46;;;;;;;;;21.75;19.75;;;;;7.58;52.38;100358.00;5120288;27;45515;-66
2023/03/06 06:19:19;;;;;;;;;27.50;24.25;;;;;7.61;52.73;100371.41;5118180;27;45132;-65
2023/03/06 06:21:46;;;;;;;;;29.50;21.00;;;;;7.63;53.33;100374.13;5116308;27;46176;-66
2023/03/06 06:24:12;;;;;;;;;38.25;29.50;;;;;7.64;52.79;100378.56;5114223;27;45164;-65
2023/03/06 06:26:38;;;;;;;;;31.50;23.00;;;;;7.63;53.07;100385.66;5116186;27;45162;-64
2023/03/06 06:29:03;;;;;;;;;27.50;24.75;;;;;7.56;52.79;100378.34;5113148;27;45178;-67
2023/03/06 06:31:29;;;;;;;;;32.00;25.00;;;;;7.62;52.82;100393.56;5115627;27;45597;-64
2023/03/06 06:33:54;;;;;;;;;33.75;25.25;;;;;7.26;53.18;100333.97;5118631;27;45475;-66
2023/03/06 06:36:20;;;;;;;;;23.75;18.00;;;;;7.54;52.53;100396.00;5116724;27;45424;-65
2023/03/06 06:38:46;;;;;;;;;24.00;21.25;;;;;7.52;52.38;100403.00;5115441;27;45233;-66
2023/03/06 06:41:12;;;;;;;;;32.00;25.00;;;;;7.49;53.49;100392.25;5116236;27;45282;-66
2023/03/06 06:43:37;;;;;;;;;32.50;22.25;;;;;7.57;53.42;100401.38;5116174;27;45115;-65
2023/03/06 06:46:03;;;;;;;;;33.00;22.25;;;;;7.55;52.89;100408.41;5118744;27;45603;-67
2023/03/06 06:48:28;;;;;;;;;30.00;25.75;;;;;7.56;52.89;100421.78;5116746;27;45166;-68
2023/03/06 06:50:55;;;;;;;;;30.50;22.00;;;;;7.51;53.39;100426.03;5115626;27;45657;-69
2023/03/06 06:53:21;;;;;;;;;29.50;22.50;;;;;7.51;53.41;100427.78;5119423;27;45006;-69
2023/03/06 06:55:46;;;;;;;;;26.50;22.50;;;;;7.45;52.93;100427.59;5116707;27;45057;-64
2023/03/06 06:58:13;;;;;;;;;28.75;17.75;;;;;7.36;53.84;100429.06;5119687;27;45200;-64
2023/03/06 07:00:38;;;;;;;;;39.25;23.25;;;;;7.20;53.91;100421.44;5120493;27;45623;-64
2023/03/06 07:03:04;;;;;;;;;36.25;25.50;;;;;7.09;54.56;100429.00;5124963;27;45112;-66
2023/03/06 07:05:29;;;;;;;;;41.50;30.00;;;;;7.01;55.32;100426.09;5106461;27;45179;-72
2023/03/06 07:07:54;;;;;;;;;34.50;24.25;;;;;6.97;55.41;100423.28;5116832;27;45082;-66
2023/03/06 07:10:20;;;;;;;;;33.75;23.75;;;;;6.87;55.61;100411.41;5117004;27;45516;-66
2023/03/06 07:12:45;;;;;;;;;33.50;29.50;;;;;6.89;55.50;100423.00;5113005;27;45376;-68
2023/03/06 07:15:13;;;;;;;;;35.00;26.75;;;;;6.90;55.19;100423.91;5123867;27;45225;-68
2023/03/06 07:17:39;;;;;;;;;32.25;24.25;;;;;6.93;55.57;100432.91;5123084;27;45352;-68
2023/03/06 07:20:05;;;;;;;;;31.00;24.00;;;;;6.91;56.02;100420.41;5106884;27;45445;-67
2023/03/06 07:22:31;;;;;;;;;27.75;23.75;;;;;6.89;55.94;100419.44;5118140;27;45071;-67
2023/03/06 07:24:57;;;;;;;;;35.00;26.00;;;;;6.93;55.76;100424.00;5111138;27;45416;-70
2023/03/06 07:27:24;;;;;;;;;38.25;26.75;;;;;6.95;56.62;100424.97;5114222;27;45620;-67
2023/03/06 07:29:50;;;;;;;;;34.00;23.75;;;;;6.95;55.61;100420.56;5117985;27;45922;-66
2023/03/06 07:32:16;;;;;;;;;29.75;24.00;;;;;7.00;56.01;100424.28;5094636;27;45057;-69
2023/03/06 07:34:44;;;;;;;;;29.00;20.75;;;;;7.01;55.81;100428.75;5113739;27;45207;-69
2023/03/06 07:37:10;;;;;;;;;27.00;21.50;;;;;7.00;55.89;100431.34;5126264;27;45000;-72
2023/03/06 07:39:35;;;;;;;;;27.00;20.25;;;;;6.99;55.68;100421.56;5115724;27;45381;-69
2023/03/06 07:42:00;;;;;;;;;36.00;28.75;;;;;6.95;55.85;100409.03;5115863;27;49277;-69
2023/03/06 07:44:26;;;;;;;;;27.25;19.50;;;;;7.08;55.53;100429.88;5118734;27;45140;-67
2023/03/06 07:46:51;;;;;;;;;26.00;23.00;;;;;7.07;55.58;100422.75;5113689;27;45172;-71
2023/03/06 07:49:17;;;;;;;;;34.25;23.50;;;;;7.15;55.59;100426.56;5106857;27;45191;-68
2023/03/06 07:51:43;;;;;;;;;27.50;21.75;;;;;7.11;54.91;100424.69;5113388;27;45290;-70
2023/03/06 07:54:08;;;;;;;;;30.75;20.75;;;;;7.04;55.41;100403.16;5115592;27;45193;-67
2023/03/06 07:56:34;;;;;;;;;27.25;23.50;;;;;7.27;55.22;100431.41;5114248;27;45057;-69
2023/03/06 07:58:59;;;;;;;;;19.50;17.50;;;;;6.96;54.67;100365.69;5115824;27;46147;-67
2023/03/06 08:01:25;;;;;;;;;26.50;23.00;;;;;7.24;54.38;100417.13;5109591;27;45299;-66
2023/03/06 08:03:52;;;;;;;;;25.50;22.50;;;;;7.30;54.30;100425.31;5110309;27;45169;-70
2023/03/06 08:06:20;;;;;;;;;29.75;22.50;;;;;7.37;54.71;100419.34;5118973;27;45035;-70
2023/03/06 08:08:47;;;;;;;;;49.75;35.75;;;;;7.43;54.79;100432.84;5110224;27;46266;-66
2023/03/06 08:11:15;;;;;;;;;21.75;19.00;;;;;7.43;54.89;100426.63;5113503;27;45183;-67
2023/03/06 08:13:40;;;;;;;;;30.75;21.50;;;;;7.44;54.74;100423.09;5111873;27;44929;-70
2023/03/06 08:16:07;;;;;;;;;34.00;24.25;;;;;7.42;55.12;100420.41;5110159;27;45052;-69
2023/03/06 08:18:34;;;;;;;;;26.25;21.75;;;;;7.48;55.34;100433.00;5107943;27;45793;-68
2023/03/06 08:21:07;;;;;;;;;22.00;19.25;;;;;7.45;54.70;100432.91;5102510;27;44983;-67
2023/03/06 08:23:33;;;;;;;;;32.50;25.50;;;;;7.46;55.41;100437.38;5117534;27;45043;-69
2023/03/06 08:26:01;;;;;;;;;29.50;23.50;;;;;7.45;55.34;100435.56;5110413;27;45369;-67
2023/03/06 08:28:27;;;;;;;;;39.00;23.00;;;;;7.40;55.98;100440.72;5108401;27;46532;-68
2023/03/06 08:30:56;;;;;;;;;29.25;25.25;;;;;7.41;56.19;100437.22;5110554;27;45083;-67
2023/03/06 08:33:22;;;;;;;;;38.50;30.25;;;;;7.47;56.22;100436.50;5108945;27;45259;-69
2023/03/06 08:35:47;;;;;;;;;25.75;21.50;;;;;7.49;55.61;100429.47;5109214;27;44898;-67
2023/03/06 08:38:13;;;;;;;;;27.25;22.75;;;;;7.63;55.45;100435.28;5101287;27;46385;-68
2023/03/06 08:40:38;;;;;;;;;34.00;29.00;;;;;7.50;55.75;100418.91;5109372;27;44866;-67
2023/03/06 08:43:03;;;;;;;;;25.25;23.75;;;;;7.52;55.43;100422.53;5110424;27;45024;-68
2023/03/06 08:45:29;;;;;;;;;29.00;23.00;;;;;7.59;56.01;100423.63;5110190;27;45166;-68
2023/03/06 08:47:54;;;;;;;;;31.00;24.25;;;;;7.64;55.66;100443.31;5110223;27;45323;-68
2023/03/06 08:50:19;;;;;;;;;24.25;22.50;;;;;7.71;55.89;100449.72;5110928;27;45168;-69
2023/03/06 08:52:45;;;;;;;;;27.25;22.25;;;;;7.67;55.82;100456.69;5112408;27;45202;-68
2023/03/06 08:55:11;;;;;;;;;28.25;22.25;;;;;7.56;55.56;100448.34;5112819;27;45048;-70
2023/03/06 08:57:36;;;;;;;;;27.00;22.00;;;;;7.55;55.54;100449.19;5112631;27;45846;-72
2023/03/06 09:00:07;;;;;;;;;32.50;25.75;;;;;7.56;55.84;100443.03;5097160;27;45138;-67
2023/03/06 09:02:33;;;;;;;;;27.50;21.00;;;;;7.62;55.45;100450.31;5117166;27;45176;-68
2023/03/06 09:05:00;;;;;;;;;23.75;16.00;;;;;7.73;56.17;100446.25;5114413;27;45188;-68
2023/03/06 09:07:25;;;;;;;;;29.75;21.50;;;;;7.72;55.60;100436.47;5119784;27;46602;-65
2023/03/06 09:09:54;;;;;;;;;32.00;23.50;;;;;7.71;55.35;100441.75;5116680;27;45036;-73
2023/03/06 09:12:20;;;;;;;;;23.25;21.75;;;;;7.71;55.75;100445.31;5108694;27;44964;-68
2023/03/06 09:14:45;;;;;;;;;31.50;22.50;;;;;7.66;55.43;100451.34;5114045;27;44969;-68
2023/03/06 09:17:10;;;;;;;;;24.75;21.25;;;;;7.70;56.25;100454.13;5115610;27;45358;-69
2023/03/06 09:19:37;;;;;;;;;23.00;20.00;;;;;7.61;55.39;100429.00;5113886;27;44996;-71
2023/03/06 09:22:02;;;;;;;;;29.00;22.25;;;;;7.77;56.11;100449.00;5108454;27;45480;-71
2023/03/06 09:24:27;;;;;;;;;26.75;21.75;;;;;7.80;55.44;100455.31;5113532;27;45072;-71
2023/03/06 09:26:53;;;;;;;;;34.25;25.75;;;;;7.60;55.28;100417.44;5101512;27;46960;-72
2023/03/06 09:29:18;;;;;;;;;22.75;15.50;;;;;7.89;55.21;100454.75;5111851;27;45414;-72
2023/03/06 09:31:44;;;;;;;;;24.50;18.75;;;;;7.80;55.54;100419.84;5120590;27;45338;-72
2023/03/06 09:34:09;;;;;;;;;29.25;24.00;;;;;7.91;55.04;100432.63;5124692;27;45103;-70
2023/03/06 09:36:35;;;;;;;;;33.75;26.00;;;;;8.06;55.09;100447.28;5111365;27;46742;-72
2023/03/06 09:39:00;;;;;;;;;30.50;22.75;;;;;8.11;55.03;100446.56;5116210;27;45082;-75
2023/03/06 09:41:35;;;;;;;;;27.25;21.00;;;;;8.28;54.88;100465.75;5114683;27;45022;-72
2023/03/06 09:44:07;;;;;;;;;32.50;29.00;;;;;8.35;54.76;100441.94;5115315;27;45180;-71
2023/03/06 09:47:10;;;;;;;;;28.25;23.75;;;;;8.46;53.62;100456.53;5113624;27;48121;-72
2023/03/06 09:49:45;;;;;;;;;39.00;26.25;;;;;8.45;53.31;100457.41;5118897;27;45234;-71
2023/03/06 09:52:28;;;;;;;;;27.75;25.00;;;;;8.57;54.36;100467.53;5114692;27;45172;-72
2023/03/06 09:54:59;;;;;;;;;36.25;28.50;;;;;8.40;53.53;100419.97;5117096;27;45216;-71
2023/03/06 09:57:36;;;;;;;;;26.00;21.25;;;;;8.61;53.21;100456.09;5114766;27;45229;-72
2023/03/06 10:00:08;;;;;;;;;28.00;23.00;;;;;8.50;53.35;100445.13;5125665;27;45077;-72
2023/03/06 10:02:39;;;;;;;;;29.50;15.50;;;;;8.65;52.58;100466.00;5114641;27;45109;-71
2023/03/06 10:05:12;;;;;;;;;32.75;25.00;;;;;8.66;52.09;100462.44;5114293;27;45207;-73
2023/03/06 10:07:48;;;;;;;;;33.75;23.00;;;;;8.74;51.87;100460.91;5095953;27;46338;-72
2023/03/06 10:10:23;;;;;;;;;37.00;26.75;;;;;8.82;51.50;100458.47;5113803;27;45086;-73
2023/03/06 10:13:05;;;;;;;;;27.00;22.50;;;;;8.89;50.67;100456.88;5113732;27;45136;-71
2023/03/06 10:15:37;;;;;;;;;30.50;21.50;;;;;8.98;49.81;100455.38;5122811;27;45120;-74
2023/03/06 10:18:04;;;;;;;;;27.25;20.75;;;;;9.14;50.71;100447.81;5114341;27;45219;-72
2023/03/06 10:20:53;;;;;;;;;23.00;18.75;;;;;9.31;49.19;100443.84;5111191;27;45210;-72
2023/03/06 10:23:41;;;;;;;;;64.75;53.25;;;;;9.38;48.30;100437.81;5119169;27;44910;-71
2023/03/06 10:26:22;;;;;;;;;55.25;42.00;;;;;9.63;47.52;100445.53;5112181;27;45266;-73
2023/03/06 10:29:10;;;;;;;;;26.00;21.50;;;;;9.81;46.59;100438.00;5110588;27;45738;-72
2023/03/06 10:31:39;;;;;;;;;23.25;19.25;;;;;9.83;45.66;100435.34;5127679;27;44919;-73
2023/03/06 10:34:22;;;;;;;;;14.00;10.75;;;;;9.96;44.26;100438.38;5118347;27;45024;-73
2023/03/06 10:36:49;;;;;;;;;16.50;15.75;;;;;10.07;43.60;100414.59;5109235;27;45293;-72
2023/03/06 10:39:20;;;;;;;;;16.25;15.25;;;;;10.38;43.23;100428.66;5112400;27;45608;-71
2023/03/06 10:41:47;;;;;;;;;19.00;17.00;;;;;10.44;42.19;100430.56;5121009;27;45431;-73
2023/03/06 10:44:12;;;;;;;;;24.25;21.75;;;;;10.50;42.45;100434.25;5113707;27;45103;-72
2023/03/06 10:46:46;;;;;;;;;29.50;21.75;;;;;10.64;42.72;100422.97;5112695;27;45026;-72
2023/03/06 10:49:34;;;;;;;;;34.00;23.75;;;;;10.72;42.39;100429.38;5112352;27;45114;-72
2023/03/06 10:52:09;;;;;;;;;24.50;17.75;;;;;10.74;42.40;100419.63;5117024;27;44929;-73
2023/03/06 10:54:40;;;;;;;;;20.00;15.75;;;;;10.58;43.34;100407.72;5105573;27;44882;-74
2023/03/06 10:57:26;;;;;;;;;24.25;19.25;;;;;10.49;42.58;100431.56;5114163;27;45330;-70
2023/03/06 10:59:54;;;;;;;;;20.25;16.00;;;;;10.47;43.32;100426.19;5119726;27;45757;-70
2023/03/06 11:02:28;;;;;;;;;25.75;17.75;;;;;10.46;42.74;100413.72;5112642;27;45166;-71
2023/03/06 11:04:55;;;;;;;;;23.50;17.75;;;;;10.60;41.83;100419.34;5127864;27;45285;-71
2023/03/06 11:07:23;;;;;;;;;15.25;13.00;;;;;10.54;41.57;100404.94;5102704;27;45187;-72
2023/03/06 11:09:57;;;;;;;;;17.00;12.75;;;;;10.51;41.36;100417.38;5113067;27;47432;-70
2023/03/06 11:12:26;;;;;;;;;16.00;13.25;;;;;10.57;40.94;100413.03;5114113;27;45040;-70
2023/03/06 11:15:13;;;;;;;;;17.00;15.00;;;;;10.65;40.93;100412.31;5113591;27;45201;-75
2023/03/06 11:17:56;;;;;;;;;34.00;30.25;;;;;10.72;40.29;100393.75;5120204;27;44909;-73